Time;durP1;ratioP1;P1;durP2;ratioP2;P2;SDS_P1;SDS_P2;PMS_P1;PMS_P2;Temp;Humidity;BMP_temperature;BMP_pressure;BME280_temperature;BME280_humidity;BME280_pressure;Samples;Min_cycle;Max_cycle;Signal;HPM_P1;HPM_P2
2023/05/14 00:01:28;;;;;;;12.82;9.55;;;;;;;17.83;53.45;101825.97;5030193;28;20572;-65
2023/05/14 00:03:53;;;;;;;10.80;9.80;;;;;;;17.80;53.76;101826.56;5027643;28;20525;-65
2023/05/14 00:06:18;;;;;;;13.48;9.88;;;;;;;17.79;53.72;101829.63;5012462;28;20446;-65
2023/05/14 00:08:44;;;;;;;11.45;9.07;;;;;;;17.80;54.11;101817.25;5012261;28;20160;-65
2023/05/14 00:11:09;;;;;;;14.75;10.57;;;;;;;17.76;54.26;101816.13;5012487;28;20500;-65
2023/05/14 00:13:35;;;;;;;12.50;10.30;;;;;;;17.80;54.05;101817.25;5012654;28;20036;-64
2023/05/14 00:16:00;;;;;;;13.73;10.60;;;;;;;17.74;54.31;101812.75;5013950;28;20505;-65
2023/05/14 00:18:26;;;;;;;12.48;10.40;;;;;;;17.74;54.61;101809.94;5012358;28;20022;-65
2023/05/14 00:20:53;;;;;;;11.38;10.10;;;;;;;17.70;54.60;101812.47;5011004;28;20138;-65
2023/05/14 00:23:22;;;;;;;11.85;9.77;;;;;;;17.65;54.60;101816.09;5011727;28;20030;-65
2023/05/14 00:25:47;;;;;;;16.20;10.88;;;;;;;17.66;54.57;101806.56;5012181;28;20057;-65
2023/05/14 00:28:12;;;;;;;12.52;9.88;;;;;;;17.65;54.58;101812.47;5017215;28;20060;-65
2023/05/14 00:30:38;;;;;;;12.57;10.10;;;;;;;17.61;54.84;101812.16;5029355;28;20032;-65
2023/05/14 00:33:04;;;;;;;13.38;10.32;;;;;;;17.53;55.04;101811.88;5022962;28;20022;-65
2023/05/14 00:35:29;;;;;;;13.25;10.32;;;;;;;17.55;54.88;101809.63;5032089;28;20373;-65
2023/05/14 00:37:55;;;;;;;13.45;11.00;;;;;;;17.48;55.20;101792.19;5031089;28;20025;-65
2023/05/14 00:40:24;;;;;;;15.88;11.18;;;;;;;17.42;55.22;101792.19;5031524;28;20472;-65
2023/05/14 00:42:49;;;;;;;14.23;10.98;;;;;;;17.44;55.34;101794.69;5026900;28;20497;-65
2023/05/14 00:45:15;;;;;;;13.68;11.25;;;;;;;17.40;55.53;101797.22;5011138;28;20022;-65
2023/05/14 00:47:40;;;;;;;13.13;11.65;;;;;;;17.45;55.35;101795.53;5012918;28;20084;-65
2023/05/14 00:50:06;;;;;;;15.98;11.38;;;;;;;17.41;55.42;101787.69;5009094;28;20022;-65
2023/05/14 00:52:31;;;;;;;12.25;10.73;;;;;;;17.39;55.48;101781.50;5012459;28;20481;-65
2023/05/14 00:54:57;;;;;;;14.70;11.25;;;;;;;17.35;55.64;101793.56;5011832;28;20499;-65
2023/05/14 00:57:23;;;;;;;12.73;11.43;;;;;;;17.39;55.75;101783.47;5010975;28;20736;-65
2023/05/14 00:59:48;;;;;;;14.75;11.45;;;;;;;17.33;55.94;101781.75;5012207;28;20030;-65
2023/05/14 01:02:13;;;;;;;14.93;11.63;;;;;;;17.29;55.81;101789.03;5011912;28;20362;-65
2023/05/14 01:04:39;;;;;;;14.77;12.27;;;;;;;17.30;55.89;101783.16;5011430;28;20037;-65
2023/05/14 01:07:04;;;;;;;16.92;11.68;;;;;;;17.24;56.00;101784.25;5010818;28;20030;-65
2023/05/14 01:09:46;;;;;;;13.35;11.98;;;;;;;17.27;56.10;101788.47;5011021;28;20037;-65
2023/05/14 01:12:20;;;;;;;13.45;12.05;;;;;;;17.20;56.30;101785.94;5011057;28;20033;-65
2023/05/14 01:14:48;;;;;;;15.70;13.18;;;;;;;17.09;56.39;101778.59;5011547;28;20042;-65
2023/05/14 01:17:18;;;;;;;14.90;12.25;;;;;;;17.08;56.65;101785.31;5011476;28;20037;-65
2023/05/14 01:19:46;;;;;;;16.45;12.90;;;;;;;17.08;56.67;101782.50;5021147;28;20040;-65
2023/05/14 01:22:12;;;;;;;17.75;13.40;;;;;;;17.09;56.61;101781.38;5024352;28;20488;-65
2023/05/14 01:24:38;;;;;;;13.50;12.07;;;;;;;17.06;56.66;101779.16;5009203;28;20025;-65
2023/05/14 01:27:09;;;;;;;14.60;13.02;;;;;;;16.97;56.79;101780.78;5010813;28;20355;-65
2023/05/14 01:29:39;;;;;;;15.98;13.38;;;;;;;17.00;56.99;101780.25;5011251;28;20030;-65
2023/05/14 01:32:06;;;;;;;14.50;13.07;;;;;;;16.89;57.02;101774.56;5011209;28;20088;-65
2023/05/14 01:34:35;;;;;;;19.67;14.02;;;;;;;16.87;57.20;101776.81;5010032;28;20045;-65
2023/05/14 01:37:01;;;;;;;15.02;12.85;;;;;;;16.88;57.22;101772.88;5011383;28;20036;-64
2023/05/14 01:39:27;;;;;;;16.83;13.50;;;;;;;16.81;57.45;101765.84;5010252;28;20034;-64
2023/05/14 01:41:54;;;;;;;15.90;14.15;;;;;;;16.81;57.54;101766.69;5008230;28;20048;-64
2023/05/14 01:44:20;;;;;;;15.57;13.90;;;;;;;16.88;57.33;101767.28;5022470;28;20040;-64
2023/05/14 01:46:45;;;;;;;17.35;14.32;;;;;;;16.78;57.65;101764.44;5029997;28;20116;-65
2023/05/14 01:49:11;;;;;;;16.08;14.45;;;;;;;16.80;57.37;101764.16;5030352;28;20113;-65
2023/05/14 01:51:36;;;;;;;15.63;14.00;;;;;;;16.71;57.69;101765.78;5029724;28;20377;-65
2023/05/14 01:54:02;;;;;;;18.42;14.88;;;;;;;16.68;57.77;101769.97;5011906;28;20350;-65
2023/05/14 01:56:27;;;;;;;16.17;14.55;;;;;;;16.65;57.93;101774.13;5010020;28;20045;-65
2023/05/14 01:58:52;;;;;;;15.85;14.10;;;;;;;16.71;57.80;101771.38;5007674;28;20026;-65
2023/05/14 02:01:18;;;;;;;17.05;13.88;;;;;;;16.71;57.70;101772.22;5016977;28;20549;-66
2023/05/14 02:03:43;;;;;;;17.10;13.98;;;;;;;16.66;57.79;101764.63;5010270;28;20120;-65
2023/05/14 02:06:08;;;;;;;18.00;14.13;;;;;;;16.66;57.69;101763.75;5010687;28;20033;-65
2023/05/14 02:08:33;;;;;;;17.95;15.05;;;;;;;16.52;58.29;101756.97;5009703;28;20058;-65
2023/05/14 02:10:59;;;;;;;16.52;14.85;;;;;;;16.53;58.18;101759.50;5015592;28;20080;-65
2023/05/14 02:13:25;;;;;;;15.93;14.38;;;;;;;16.54;58.16;101757.53;5022708;28;20030;-65
2023/05/14 02:15:50;;;;;;;20.40;14.88;;;;;;;16.51;58.33;101755.28;5027003;28;20191;-66
2023/05/14 02:18:15;;;;;;;16.50;14.90;;;;;;;16.50;58.46;101750.78;5022625;28;20497;-65
2023/05/14 02:20:41;;;;;;;18.25;15.95;;;;;;;16.38;58.42;101759.41;5030585;28;20482;-65
2023/05/14 02:23:06;;;;;;;17.10;15.32;;;;;;;16.42;58.34;101750.16;5024123;28;20712;-65
2023/05/14 02:25:31;;;;;;;18.45;15.10;;;;;;;16.38;58.78;101760.22;5015737;28;20033;-65
2023/05/14 02:27:57;;;;;;;19.20;16.13;;;;;;;16.41;58.61;101761.66;5029119;28;20124;-65
2023/05/14 02:30:22;;;;;;;17.60;15.70;;;;;;;16.40;58.87;101762.78;5018800;28;20041;-65
2023/05/14 02:32:47;;;;;;;16.98;15.20;;;;;;;16.31;58.94;101759.66;5014475;28;20037;-66
2023/05/14 02:35:12;;;;;;;17.00;15.20;;;;;;;16.26;59.56;101748.38;5019085;28;20100;-65
2023/05/14 02:37:38;;;;;;;19.08;15.77;;;;;;;16.24;59.21;101745.03;5024153;28;20121;-65
2023/05/14 02:40:03;;;;;;;18.98;15.48;;;;;;;16.17;59.63;101750.84;5009383;28;20076;-65
2023/05/14 02:42:29;;;;;;;17.77;15.95;;;;;;;16.16;59.46;101748.34;5010090;28;20030;-65
2023/05/14 02:44:54;;;;;;;16.90;15.30;;;;;;;16.19;58.80;101747.78;5019307;28;20014;-65
2023/05/14 02:47:19;;;;;;;17.98;16.17;;;;;;;16.20;59.39;101746.69;5017845;28;20051;-65
2023/05/14 02:49:44;;;;;;;17.42;15.55;;;;;;;16.16;59.22;101745.53;5025273;28;20033;-65
2023/05/14 02:52:10;;;;;;;21.70;16.92;;;;;;;16.09;59.55;101747.72;5013381;28;20054;-65
2023/05/14 02:54:35;;;;;;;20.27;16.17;;;;;;;16.15;59.53;101746.63;5030207;28;20044;-65
2023/05/14 02:57:00;;;;;;;19.85;16.58;;;;;;;16.13;59.45;101741.31;5032129;28;20097;-65
2023/05/14 02:59:26;;;;;;;18.27;16.38;;;;;;;16.13;59.59;101749.69;5014448;28;20042;-65
2023/05/14 03:01:52;;;;;;;19.55;17.02;;;;;;;16.07;59.81;101758.31;5015233;28;20469;-65
2023/05/14 03:04:17;;;;;;;18.40;16.52;;;;;;;16.02;59.79;101747.94;5026563;28;20040;-65
2023/05/14 03:06:42;;;;;;;18.02;16.23;;;;;;;16.03;59.75;101744.00;5030259;28;20030;-65
2023/05/14 03:09:07;;;;;;;19.77;17.65;;;;;;;16.06;59.73;101753.84;5014319;28;20037;-65
2023/05/14 03:11:33;;;;;;;22.52;16.67;;;;;;;16.10;59.58;101749.41;5019067;28;20025;-65
2023/05/14 03:13:58;;;;;;;21.13;17.42;;;;;;;16.01;59.70;101734.22;5032914;28;20500;-65
2023/05/14 03:16:24;;;;;;;20.35;16.80;;;;;;;16.03;59.76;101737.56;5023632;28;20146;-65
2023/05/14 03:18:49;;;;;;;23.88;18.08;;;;;;;15.99;59.81;101737.25;5014810;28;20038;-65
2023/05/14 03:21:14;;;;;;;23.08;18.05;;;;;;;15.94;60.12;101738.06;5016411;28;20041;-65
2023/05/14 03:23:39;;;;;;;20.23;17.80;;;;;;;15.93;59.69;101729.94;5013824;28;20034;-65
2023/05/14 03:26:05;;;;;;;20.55;18.10;;;;;;;15.89;60.30;101728.78;5014930;28;20060;-65
2023/05/14 03:28:30;;;;;;;19.65;17.65;;;;;;;15.84;60.20;101735.19;5012799;28;20022;-65
2023/05/14 03:30:56;;;;;;;20.65;18.10;;;;;;;15.89;60.15;101728.78;5021614;28;20053;-65
2023/05/14 03:33:21;;;;;;;20.52;18.52;;;;;;;15.85;60.19;101720.09;5032494;28;20028;-65
2023/05/14 03:35:47;;;;;;;20.25;18.17;;;;;;;15.76;60.64;101718.91;5021278;28;20133;-65
2023/05/14 03:38:12;;;;;;;23.63;18.58;;;;;;;15.77;60.25;101726.19;5021804;28;20508;-65
2023/05/14 03:40:37;;;;;;;21.55;18.40;;;;;;;15.69;60.47;101721.06;5012262;28;20076;-66
2023/05/14 03:43:03;;;;;;;20.13;17.58;;;;;;;15.69;60.70;101726.66;5015321;28;20079;-65
2023/05/14 03:45:29;;;;;;;20.35;17.77;;;;;;;15.59;60.78;101732.97;5030996;28;20496;-65
2023/05/14 03:47:54;;;;;;;20.67;18.52;;;;;;;15.62;60.83;101731.59;5032388;28;20029;-65
2023/05/14 03:50:20;;;;;;;23.38;18.95;;;;;;;15.50;61.34;101728.13;5030634;28;20041;-65
2023/05/14 03:52:45;;;;;;;22.00;18.85;;;;;;;15.52;60.83;101723.09;5017626;28;20038;-65
2023/05/14 03:55:10;;;;;;;21.83;19.40;;;;;;;15.53;61.56;101734.03;5012363;28;20148;-65
2023/05/14 03:57:36;;;;;;;24.42;19.42;;;;;;;15.43;61.69;101726.38;5013138;28;20026;-65
2023/05/14 04:00:02;;;;;;;24.15;18.85;;;;;;;15.42;61.69;101727.50;5011162;28;20045;-65
2023/05/14 04:02:27;;;;;;;22.05;19.83;;;;;;;15.47;61.83;101726.69;5012832;28;20037;-65
2023/05/14 04:04:53;;;;;;;23.77;19.75;;;;;;;15.39;61.93;101718.78;5013006;28;20026;-65
2023/05/14 04:07:18;;;;;;;26.10;20.77;;;;;;;15.47;61.76;101726.69;5023789;28;20469;-65
2023/05/14 04:09:43;;;;;;;20.70;18.48;;;;;;;15.41;61.89;101720.22;5032557;28;20030;-65
2023/05/14 04:12:09;;;;;;;21.23;18.92;;;;;;;15.44;62.04;101719.69;5026012;28;20441;-65
2023/05/14 04:14:34;;;;;;;22.80;20.13;;;;;;;15.40;62.09;101717.66;5011903;28;20070;-65
2023/05/14 04:16:59;;;;;;;22.40;20.00;;;;;;;15.31;62.16;101713.66;5014296;28;20025;-66
2023/05/14 04:19:24;;;;;;;23.98;19.67;;;;;;;15.30;62.08;101726.81;5032809;28;20543;-65
2023/05/14 04:21:50;;;;;;;25.98;19.70;;;;;;;15.31;62.23;101736.03;5031848;28;20041;-65
2023/05/14 04:24:16;;;;;;;24.48;20.05;;;;;;;15.33;62.20;101722.66;5031935;28;20461;-65
2023/05/14 04:26:41;;;;;;;22.20;19.80;;;;;;;15.30;62.29;101723.19;5032248;28;20029;-66
2023/05/14 04:29:06;;;;;;;23.00;20.05;;;;;;;15.24;62.36;101716.66;5030642;28;20473;-65
2023/05/14 04:31:31;;;;;;;24.17;21.58;;;;;;;15.28;62.36;101717.81;5028809;28;20120;-66
2023/05/14 04:33:57;;;;;;;24.85;20.73;;;;;;;15.19;62.55;101714.66;5032988;28;20029;-66
2023/05/14 04:36:22;;;;;;;24.95;20.40;;;;;;;15.20;62.45;101713.56;5021265;28;20017;-66
2023/05/14 04:38:47;;;;;;;23.05;20.63;;;;;;;15.12;62.67;101711.22;5032399;28;20075;-66
2023/05/14 04:41:13;;;;;;;22.70;20.33;;;;;;;15.13;62.90;101717.66;5032067;28;20025;-66
2023/05/14 04:43:38;;;;;;;24.67;20.52;;;;;;;15.16;62.68;101719.94;5031033;28;20030;-66
2023/05/14 04:46:04;;;;;;;24.02;20.38;;;;;;;15.15;62.59;101718.25;5025515;28;20025;-66
2023/05/14 04:48:30;;;;;;;22.70;20.30;;;;;;;15.16;62.62;101711.53;5012204;28;20036;-66
2023/05/14 04:50:55;;;;;;;24.23;20.20;;;;;;;15.22;62.61;101718.91;5011319;28;20101;-66
2023/05/14 04:53:20;;;;;;;25.23;20.38;;;;;;;15.22;62.60;101713.31;5016634;28;20041;-66
2023/05/14 04:55:45;;;;;;;24.70;20.58;;;;;;;15.18;62.53;101712.97;5031754;28;20076;-66
2023/05/14 04:58:11;;;;;;;22.60;20.20;;;;;;;15.18;63.07;101720.53;5019224;28;20072;-66
2023/05/14 05:00:37;;;;;;;27.38;21.58;;;;;;;15.14;62.95;101722.16;5010310;28;20057;-66
2023/05/14 05:03:02;;;;;;;23.10;20.27;;;;;;;15.18;62.68;101723.34;5012392;28;20133;-66
2023/05/14 05:05:28;;;;;;;23.73;20.65;;;;;;;15.16;62.86;101723.56;5011175;28;20030;-66
2023/05/14 05:07:53;;;;;;;23.42;20.92;;;;;;;15.23;62.61;101724.22;5011272;28;20028;-66
2023/05/14 05:10:19;;;;;;;21.67;19.00;;;;;;;15.17;62.68;101730.88;5010775;28;20040;-66
2023/05/14 05:12:44;;;;;;;22.48;19.08;;;;;;;15.23;62.75;101726.16;5011691;28;20036;-66
2023/05/14 05:15:09;;;;;;;23.88;19.63;;;;;;;15.18;62.86;101731.72;5011391;28;20050;-66
2023/05/14 05:17:35;;;;;;;22.13;19.90;;;;;;;15.20;62.68;101733.13;5025604;28;20025;-66
2023/05/14 05:20:01;;;;;;;22.45;20.15;;;;;;;15.19;62.81;101733.41;5010774;28;20038;-66
2023/05/14 05:22:26;;;;;;;23.40;20.52;;;;;;;15.12;62.96;101728.00;5011544;28;20080;-66
2023/05/14 05:24:51;;;;;;;22.25;19.95;;;;;;;15.17;62.88;101747.66;5011482;28;20779;-66
2023/05/14 05:27:17;;;;;;;24.00;20.30;;;;;;;15.19;62.94;101750.19;5011290;28;20030;-66
2023/05/14 05:29:45;;;;;;;21.75;19.45;;;;;;;15.08;63.32;101751.16;5011561;28;20386;-66
2023/05/14 05:32:10;;;;;;;25.25;19.85;;;;;;;15.21;62.78;101740.44;5010661;28;20156;-66
2023/05/14 05:34:36;;;;;;;25.48;19.58;;;;;;;15.23;62.67;101728.97;5010198;28;20018;-66
2023/05/14 05:37:01;;;;;;;22.52;19.50;;;;;;;15.28;62.77;101736.56;5014853;28;20025;-65
2023/05/14 05:39:26;;;;;;;23.45;19.00;;;;;;;15.22;62.71;101742.13;5011093;28;20536;-64
2023/05/14 05:41:53;;;;;;;24.15;19.30;;;;;;;15.31;62.80;101734.09;5009799;28;20038;-65
2023/05/14 05:44:18;;;;;;;23.92;19.90;;;;;;;15.31;62.81;101738.84;5013920;28;20030;-64
2023/05/14 05:46:43;;;;;;;21.02;18.23;;;;;;;15.37;62.56;101738.66;5017495;28;20026;-65
2023/05/14 05:49:09;;;;;;;23.60;18.33;;;;;;;15.39;62.69;101744.81;5026462;28;20035;-65
2023/05/14 05:51:34;;;;;;;23.98;18.33;;;;;;;15.38;62.57;101737.53;5030937;28;20060;-65
2023/05/14 05:53:59;;;;;;;25.23;18.83;;;;;;;15.41;62.65;101742.59;5019696;28;20029;-65
2023/05/14 05:56:25;;;;;;;20.73;17.90;;;;;;;15.46;62.48;101745.44;5016456;28;20029;-65
2023/05/14 05:58:50;;;;;;;21.33;18.30;;;;;;;15.53;62.26;101744.41;5016293;28;20022;-65
2023/05/14 06:01:15;;;;;;;21.15;18.08;;;;;;;15.56;61.76;101753.13;5010277;28;20018;-65
2023/05/14 06:03:41;;;;;;;25.00;17.77;;;;;;;15.60;62.02;101756.19;5030765;28;20026;-65
2023/05/14 06:06:06;;;;;;;19.80;17.50;;;;;;;15.61;62.00;101755.94;5030904;28;20036;-65
2023/05/14 06:08:32;;;;;;;21.52;17.92;;;;;;;15.67;62.08;101756.88;5027747;28;20041;-65
2023/05/14 06:10:57;;;;;;;25.80;18.50;;;;;;;15.70;61.61;101759.13;5018946;28;20470;-65
2023/05/14 06:13:22;;;;;;;20.15;17.42;;;;;;;15.72;61.93;101759.72;5010962;28;20018;-65
2023/05/14 06:15:48;;;;;;;19.63;17.50;;;;;;;15.77;61.93;101756.97;5009396;28;20046;-65
2023/05/14 06:18:13;;;;;;;22.63;17.80;;;;;;;15.82;61.83;101753.38;5010648;28;20049;-65
2023/05/14 06:20:40;;;;;;;19.20;17.08;;;;;;;15.86;61.62;101765.72;5013864;28;20054;-65
2023/05/14 06:23:06;;;;;;;19.92;18.02;;;;;;;15.82;61.54;101770.16;5016387;28;20477;-65
2023/05/14 06:25:31;;;;;;;23.20;18.13;;;;;;;15.74;61.58;101774.28;5029088;28;20037;-65
2023/05/14 06:27:57;;;;;;;21.67;18.00;;;;;;;15.66;62.00;101771.97;5026660;28;20076;-65
2023/05/14 06:30:22;;;;;;;21.23;17.60;;;;;;;15.69;61.75;101768.66;5013078;28;20034;-65
2023/05/14 06:32:47;;;;;;;25.38;18.77;;;;;;;15.69;61.89;101772.28;5014738;28;20065;-65
2023/05/14 06:35:13;;;;;;;21.73;19.00;;;;;;;15.64;62.00;101769.41;5013341;28;20026;-65
2023/05/14 06:37:38;;;;;;;19.55;17.40;;;;;;;15.65;62.53;101776.72;5017510;28;20048;-65
2023/05/14 06:40:04;;;;;;;23.77;18.42;;;;;;;15.67;62.13;101774.50;5014359;28;20022;-65
2023/05/14 06:42:30;;;;;;;23.13;18.33;;;;;;;15.66;62.36;101770.00;5013363;28;20116;-65
2023/05/14 06:44:55;;;;;;;21.98;18.23;;;;;;;15.74;62.13;101773.44;5017089;28;20140;-64
2023/05/14 06:47:20;;;;;;;23.77;19.48;;;;;;;15.73;62.44;101763.38;5023689;28;20049;-65
2023/05/14 06:49:45;;;;;;;25.30;19.38;;;;;;;15.76;62.22;101766.47;5018119;28;20528;-65
2023/05/14 06:52:11;;;;;;;20.73;18.58;;;;;;;15.81;61.82;101763.72;5021460;28;20041;-63
2023/05/14 06:54:36;;;;;;;21.15;18.15;;;;;;;15.87;62.25;101767.41;5021568;28;20022;-66
2023/05/14 06:57:01;;;;;;;22.05;19.70;;;;;;;15.95;62.40;101764.09;5016398;28;20029;-66
2023/05/14 06:59:27;;;;;;;21.52;18.23;;;;;;;16.10;62.13;101764.22;5015147;28;20045;-65
2023/05/14 07:01:52;;;;;;;22.75;18.52;;;;;;;16.19;61.91;101759.84;5020738;28;20037;-66
2023/05/14 07:04:17;;;;;;;22.90;17.60;;;;;;;16.37;61.64;101758.56;5018217;28;20033;-66
2023/05/14 07:06:42;;;;;;;20.27;17.98;;;;;;;16.47;61.26;101760.59;5011833;28;20116;-65
2023/05/14 07:09:09;;;;;;;19.00;17.05;;;;;;;16.62;60.81;101757.00;5027307;28;20042;-64
2023/05/14 07:11:34;;;;;;;10.25;9.15;;;;;;;17.01;63.63;101759.47;5023791;28;20041;-64
2023/05/14 07:14:00;;;;;;;9.95;8.68;;;;;;;17.25;62.88;101749.50;5007909;28;20042;-65
2023/05/14 07:16:25;;;;;;;14.20;11.15;;;;;;;17.41;62.01;101753.19;5011897;28;20090;-64
2023/05/14 07:18:50;;;;;;;10.70;9.10;;;;;;;17.58;61.69;101750.94;5014809;28;20036;-65
2023/05/14 07:21:16;;;;;;;14.57;10.50;;;;;;;17.66;60.59;101756.00;5021853;28;20553;-65
2023/05/14 07:23:41;;;;;;;12.75;10.65;;;;;;;17.73;59.65;101755.75;5016990;28;20048;-63
2023/05/14 07:26:07;;;;;;;13.38;11.07;;;;;;;17.90;59.53;101758.31;5020154;28;20179;-64
2023/05/14 07:28:33;;;;;;;16.42;13.13;;;;;;;17.95;59.05;101757.47;5013417;28;20021;-66
2023/05/14 07:30:58;;;;;;;13.25;11.85;;;;;;;18.02;58.89;101763.66;5017199;28;20025;-65
2023/05/14 07:33:24;;;;;;;13.07;11.65;;;;;;;18.12;58.72;101755.22;5015004;28;20041;-63
2023/05/14 07:35:49;;;;;;;13.00;11.00;;;;;;;18.19;58.34;101754.91;5027361;28;20064;-65
2023/05/14 07:38:15;;;;;;;13.57;11.55;;;;;;;18.25;58.02;101763.06;5009735;28;20036;-65
2023/05/14 07:40:41;;;;;;;14.70;11.70;;;;;;;18.32;57.64;101759.97;5010501;28;20030;-66
2023/05/14 07:43:06;;;;;;;14.00;12.07;;;;;;;18.40;57.49;101765.88;5027976;28;20049;-67
2023/05/14 07:45:31;;;;;;;14.35;11.95;;;;;;;18.39;57.20;101767.00;5030418;28;20078;-67
2023/05/14 07:47:57;;;;;;;14.77;12.07;;;;;;;18.47;57.44;101761.91;5020078;28;20436;-68
2023/05/14 07:50:22;;;;;;;15.48;11.65;;;;;;;18.55;56.90;101758.50;5014187;28;20030;-64
2023/05/14 07:52:47;;;;;;;15.38;12.57;;;;;;;18.62;56.94;101754.28;5010381;28;20026;-66
2023/05/14 07:55:13;;;;;;;15.70;12.02;;;;;;;18.65;56.41;101758.50;5018714;28;20535;-64
2023/05/14 07:57:38;;;;;;;15.02;10.93;;;;;;;18.69;56.10;101751.16;5019913;28;20037;-62
2023/05/14 08:00:08;;;;;;;15.05;12.38;;;;;;;18.68;55.02;101749.50;5023919;28;20037;-63
2023/05/14 08:02:33;;;;;;;16.75;11.82;;;;;;;18.74;55.29;101747.53;5017850;28;20033;-63
2023/05/14 08:04:58;;;;;;;15.93;11.50;;;;;;;18.78;54.99;101738.22;5025823;28;20021;-63
2023/05/14 08:07:26;;;;;;;12.15;10.90;;;;;;;18.89;55.32;101744.66;5018982;28;20040;-62
2023/05/14 08:09:51;;;;;;;17.52;13.18;;;;;;;18.88;54.98;101743.81;5022957;28;20022;-63
2023/05/14 08:12:16;;;;;;;15.10;11.38;;;;;;;18.93;54.30;101753.38;5030679;28;20036;-63
2023/05/14 08:14:41;;;;;;;16.35;12.15;;;;;;;18.93;54.10;101742.13;4980899;28;1027289;-63
2023/05/14 08:17:07;;;;;;;15.23;12.10;;;;;;;18.93;54.16;101737.31;5011846;28;20037;-65
2023/05/14 08:19:32;;;;;;;15.45;12.57;;;;;;;19.01;53.84;101747.97;5011404;28;20030;-64
2023/05/14 08:21:57;;;;;;;12.32;11.00;;;;;;;19.02;54.29;101746.88;5015187;28;20029;-64
2023/05/14 08:24:23;;;;;;;10.85;9.75;;;;;;;19.03;54.40;101739.28;5011013;28;20347;-64
2023/05/14 08:26:48;;;;;;;14.98;11.45;;;;;;;18.91;54.32;101748.03;5011090;28;20053;-64
2023/05/14 08:29:13;;;;;;;11.95;10.75;;;;;;;18.93;54.11;101750.56;5010085;28;20021;-64
2023/05/14 08:31:39;;;;;;;13.90;10.77;;;;;;;18.94;54.26;101752.22;5011832;28;20542;-64
2023/05/14 08:34:04;;;;;;;14.48;11.25;;;;;;;18.89;54.35;101751.13;5011152;28;20462;-64
2023/05/14 08:36:30;;;;;;;16.35;13.32;;;;;;;18.82;53.53;101749.75;5012796;28;20072;-64
2023/05/14 08:38:55;;;;;;;11.85;9.65;;;;;;;18.94;54.26;101747.44;5010661;28;20112;-64
2023/05/14 08:41:21;;;;;;;12.85;9.77;;;;;;;18.99;54.51;101732.53;5017224;28;20153;-64
2023/05/14 08:44:09;;;;;;;14.70;10.75;;;;;;;19.09;54.82;101726.84;5012413;28;20072;-64
2023/05/14 08:46:37;;;;;;;13.30;9.48;;;;;;;19.21;54.28;101720.88;5011131;28;20405;-64
2023/05/14 08:49:20;;;;;;;10.23;8.57;;;;;;;19.35;54.27;101728.38;5016285;28;20022;-65
2023/05/14 08:51:47;;;;;;;11.10;9.32;;;;;;;19.31;53.77;101729.25;5013331;28;20037;-65
2023/05/14 08:54:15;;;;;;;14.73;12.48;;;;;;;19.28;53.71;101725.06;5011006;28;20052;-65
2023/05/14 08:56:43;;;;;;;17.65;12.10;;;;;;;19.31;53.09;101726.44;5010631;28;20037;-65
2023/05/14 08:59:08;;;;;;;13.80;9.85;;;;;;;19.43;53.66;101714.84;5010628;28;20088;-63
2023/05/14 09:01:36;;;;;;;16.35;12.98;;;;;;;19.46;53.92;101717.06;5009498;28;20034;-64
2023/05/14 09:04:05;;;;;;;12.85;10.35;;;;;;;19.57;53.43;101718.66;5019536;28;20048;-64
2023/05/14 09:06:32;;;;;;;22.45;11.10;;;;;;;19.63;52.58;101714.72;5010215;28;20060;-64
2023/05/14 09:08:57;;;;;;;16.52;10.60;;;;;;;19.67;53.15;101710.19;5011579;28;20033;-64
2023/05/14 09:11:23;;;;;;;12.82;10.30;;;;;;;19.70;52.61;101709.59;5010008;28;20119;-64
2023/05/14 09:13:48;;;;;;;11.77;9.20;;;;;;;19.90;52.88;101699.28;5010477;28;20505;-64
2023/05/14 09:16:16;;;;;;;11.02;9.38;;;;;;;19.97;52.36;101694.16;5010893;28;20022;-64
2023/05/14 09:18:44;;;;;;;11.30;8.52;;;;;;;20.04;52.25;101689.88;5011161;28;20059;-64
2023/05/14 09:21:09;;;;;;;10.88;9.05;;;;;;;20.07;51.90;101692.06;5010664;28;20432;-63
2023/05/14 09:23:40;;;;;;;12.35;9.85;;;;;;;20.08;51.57;101695.72;5009349;28;20018;-64
2023/05/14 09:26:06;;;;;;;9.57;7.35;;;;;;;20.22;51.73;101691.06;5007859;28;20125;-64
2023/05/14 09:28:31;;;;;;;12.82;8.88;;;;;;;20.25;51.78;101692.47;5010043;28;20120;-64
2023/05/14 09:30:56;;;;;;;12.10;8.23;;;;;;;20.27;51.51;101696.66;5017535;28;20029;-64
2023/05/14 09:33:28;;;;;;;11.65;9.00;;;;;;;20.29;51.65;101694.38;5029062;28;20045;-64
2023/05/14 09:35:59;;;;;;;13.23;8.50;;;;;;;20.27;49.30;101693.81;5008898;28;20148;-64
2023/05/14 09:38:29;;;;;;;9.43;8.13;;;;;;;20.32;49.92;101693.78;5010653;28;20088;-64
2023/05/14 09:40:55;;;;;;;13.70;10.00;;;;;;;20.29;48.56;101690.72;5013366;28;20037;-64
2023/05/14 09:43:20;;;;;;;10.15;8.15;;;;;;;20.31;49.24;101692.09;5023557;28;20030;-63
2023/05/14 09:45:45;;;;;;;9.13;7.38;;;;;;;20.38;49.60;101685.28;5018024;28;20026;-60
2023/05/14 09:48:11;;;;;;;14.40;7.75;;;;;;;20.42;50.11;101687.19;5024530;28;20043;-63
2023/05/14 09:50:44;;;;;;;9.55;8.15;;;;;;;20.45;50.67;101691.41;5020261;28;20026;-63
2023/05/14 09:53:10;;;;;;;9.68;7.50;;;;;;;20.53;50.35;101679.50;5012481;28;20038;-64
2023/05/14 09:55:38;;;;;;;10.75;7.93;;;;;;;20.57;51.24;101680.56;5019382;28;20426;-65
2023/05/14 09:58:03;;;;;;;13.00;9.48;;;;;;;20.56;49.84;101684.53;5017598;28;20032;-65
2023/05/14 10:00:31;;;;;;;9.90;7.80;;;;;;;20.58;50.36;101680.25;5021877;28;20147;-65
2023/05/14 10:02:57;;;;;;;11.60;7.88;;;;;;;20.61;50.36;101681.66;5029193;28;20025;-64
2023/05/14 10:05:23;;;;;;;13.30;7.82;;;;;;;20.66;50.64;101680.75;5029565;28;20060;-63
2023/05/14 10:07:52;;;;;;;14.38;9.23;;;;;;;20.66;49.68;101675.09;5022861;28;20021;-60
2023/05/14 10:10:25;;;;;;;11.57;8.60;;;;;;;20.71;50.69;101681.53;5012253;28;20030;-62
2023/05/14 10:12:55;;;;;;;11.77;8.57;;;;;;;20.62;48.65;101669.22;5010629;28;20029;-62
2023/05/14 10:15:37;;;;;;;10.63;8.55;;;;;;;20.65;49.91;101677.09;5008950;28;20052;-63
2023/05/14 10:18:08;;;;;;;10.40;6.30;;;;;;;20.66;47.19;101675.09;5009784;28;20044;-63
2023/05/14 10:20:34;;;;;;;10.82;8.05;;;;;;;20.63;47.32;101675.69;5009400;28;20105;-62
2023/05/14 10:22:59;;;;;;;9.30;8.00;;;;;;;20.63;47.96;101670.88;5009360;28;20041;-63
2023/05/14 10:25:25;;;;;;;10.63;9.52;;;;;;;20.63;47.70;101661.59;5010322;28;20084;-62
2023/05/14 10:27:51;;;;;;;12.82;7.97;;;;;;;20.70;47.40;101671.38;5011793;28;20056;-63
2023/05/14 10:30:21;;;;;;;10.95;8.63;;;;;;;20.67;47.42;101672.00;5012399;28;20476;-63
2023/05/14 10:32:46;;;;;;;9.88;7.95;;;;;;;20.73;48.09;101659.47;5009841;28;20029;-63
2023/05/14 10:35:17;;;;;;;10.75;7.00;;;;;;;20.83;48.00;101664.16;5009706;28;20029;-63
2023/05/14 10:37:44;;;;;;;11.18;7.80;;;;;;;20.81;47.59;101666.44;5016257;28;20052;-63
2023/05/14 10:40:11;;;;;;;9.88;8.10;;;;;;;20.88;48.22;101663.25;5029467;28;20384;-63
2023/05/14 10:42:42;;;;;;;10.65;8.38;;;;;;;20.90;48.35;101669.41;5028486;28;20082;-63
2023/05/14 10:45:09;;;;;;;12.15;8.32;;;;;;;20.94;48.82;101671.31;5027328;28;20027;-63
2023/05/14 10:47:36;;;;;;;10.27;7.93;;;;;;;20.93;47.97;101664.00;5009249;28;20034;-63
2023/05/14 10:50:07;;;;;;;10.05;7.72;;;;;;;20.96;48.11;101651.28;5008269;28;20030;-63
2023/05/14 10:52:34;;;;;;;8.55;7.22;;;;;;;20.99;46.45;101651.53;5008845;28;20026;-63
2023/05/14 10:55:07;;;;;;;12.35;7.50;;;;;;;21.00;46.37;101650.38;5008770;28;20389;-63
2023/05/14 10:57:35;;;;;;;8.15;7.28;;;;;;;21.00;46.97;101653.19;5009210;28;20041;-62
2023/05/14 11:00:01;;;;;;;9.55;7.80;;;;;;;21.03;47.25;101644.13;5009723;28;20393;-63
2023/05/14 11:02:34;;;;;;;11.13;7.63;;;;;;;21.12;48.02;101649.06;5006366;28;20029;-63
2023/05/14 11:05:10;;;;;;;9.00;7.88;;;;;;;21.14;48.13;101641.13;5010686;28;20037;-63
2023/05/14 11:07:37;;;;;;;10.88;8.27;;;;;;;21.19;47.99;101639.09;5012617;28;20029;-63